Time;durP1;ratioP1;P1;durP2;ratioP2;P2;SDS_P1;SDS_P2;PMS_P1;PMS_P2;Temp;Humidity;BMP_temperature;BMP_pressure;BME280_temperature;BME280_humidity;BME280_pressure;Samples;Min_cycle;Max_cycle;Signal;HPM_P1;HPM_P2
2022/03/26 00:00:08;;;;;;;22.10;14.68;;;13.30;95.10;;;;;;5053769;28;20037;-59
2022/03/26 00:02:36;;;;;;;20.70;14.05;;;13.30;95.10;;;;;;5054350;28;20045;-59
2022/03/26 00:05:06;;;;;;;21.25;14.45;;;13.30;95.10;;;;;;5045545;28;20446;-59
2022/03/26 00:07:34;;;;;;;18.85;12.50;;;13.30;95.10;;;;;;5046028;28;20509;-59
2022/03/26 00:10:03;;;;;;;20.88;14.45;;;13.30;95.10;;;;;;5053496;28;20043;-59
2022/03/26 00:12:31;;;;;;;17.77;14.05;;;13.30;95.00;;;;;;5029635;28;20132;-59
2022/03/26 00:14:59;;;;;;;18.15;12.45;;;13.40;94.90;;;;;;5054453;28;20045;-59
2022/03/26 00:17:26;;;;;;;18.35;12.20;;;13.30;95.10;;;;;;5050117;28;20102;-59
2022/03/26 00:19:54;;;;;;;17.60;11.95;;;13.30;95.10;;;;;;5037587;28;20036;-59
2022/03/26 00:22:22;;;;;;;17.92;12.00;;;13.40;95.20;;;;;;5052836;28;20072;-58
2022/03/26 00:24:50;;;;;;;18.42;11.77;;;13.30;95.20;;;;;;5054782;28;20047;-58
2022/03/26 00:27:17;;;;;;;17.63;12.82;;;13.30;95.20;;;;;;5036715;28;20064;-59
2022/03/26 00:29:45;;;;;;;16.30;10.30;;;13.30;95.30;;;;;;5020332;28;20053;-59
2022/03/26 00:32:13;;;;;;;12.35;9.88;;;13.30;95.40;;;;;;5032693;28;20041;-59
2022/03/26 00:34:40;;;;;;;16.17;10.32;;;13.30;95.40;;;;;;5019142;28;20042;-59
2022/03/26 00:37:08;;;;;;;13.85;10.48;;;13.30;95.30;;;;;;5028084;28;20418;-59
2022/03/26 00:39:38;;;;;;;16.92;11.38;;;13.30;95.20;;;;;;4999659;28;20052;-59
2022/03/26 00:42:08;;;;;;;15.25;10.23;;;13.20;95.00;;;;;;5050937;28;20045;-60
2022/03/26 00:44:37;;;;;;;16.58;11.30;;;13.30;95.10;;;;;;5037417;28;20131;-59
2022/03/26 00:47:08;;;;;;;16.33;9.55;;;13.30;95.10;;;;;;5041670;28;20400;-60
2022/03/26 00:49:36;;;;;;;13.38;9.52;;;13.30;95.00;;;;;;5053699;28;20049;-59
2022/03/26 00:52:05;;;;;;;13.10;10.45;;;13.30;95.00;;;;;;5041329;28;20075;-59
2022/03/26 00:54:33;;;;;;;17.23;11.20;;;13.20;94.90;;;;;;5049158;28;20625;-59
2022/03/26 00:57:01;;;;;;;13.40;9.50;;;13.30;94.90;;;;;;5046298;28;20071;-59
2022/03/26 00:59:31;;;;;;;14.93;9.77;;;13.30;94.80;;;;;;5038266;28;20502;-59
2022/03/26 01:01:58;;;;;;;13.93;9.88;;;13.30;94.70;;;;;;5034056;28;20045;-59
2022/03/26 01:04:29;;;;;;;13.32;9.85;;;13.20;94.60;;;;;;5042823;28;20139;-59
2022/03/26 01:06:57;;;;;;;15.07;10.45;;;13.20;94.40;;;;;;5041036;28;20506;-59
2022/03/26 01:09:24;;;;;;;16.52;10.20;;;13.20;94.50;;;;;;5052916;28;20525;-58
2022/03/26 01:11:52;;;;;;;14.52;10.48;;;13.20;94.50;;;;;;5052148;28;20090;-59
2022/03/26 01:14:22;;;;;;;15.15;10.98;;;13.10;94.50;;;;;;5052444;28;20084;-59
2022/03/26 01:16:50;;;;;;;14.35;10.27;;;13.10;94.40;;;;;;5038233;28;20065;-59
2022/03/26 01:19:17;;;;;;;17.35;10.88;;;13.10;94.20;;;;;;5052988;28;20040;-59
2022/03/26 01:21:47;;;;;;;20.08;10.75;;;13.10;93.90;;;;;;5060930;28;20052;-59
2022/03/26 01:24:15;;;;;;;16.75;10.25;;;13.10;93.50;;;;;;5056101;28;20053;-59
2022/03/26 01:26:43;;;;;;;21.63;10.25;;;13.00;93.10;;;;;;5050956;28;20171;-59
2022/03/26 01:29:10;;;;;;;16.65;11.35;;;13.00;92.80;;;;;;5052275;28;20619;-60
2022/03/26 01:31:38;;;;;;;19.02;11.82;;;13.00;92.40;;;;;;5040648;28;20136;-60
2022/03/26 01:34:06;;;;;;;15.18;11.55;;;13.00;92.00;;;;;;5039687;28;20036;-59
2022/03/26 01:36:34;;;;;;;15.95;10.70;;;13.00;91.60;;;;;;5050899;28;20569;-59
2022/03/26 01:39:03;;;;;;;15.60;11.45;;;12.90;91.50;;;;;;5054694;28;20033;-59
2022/03/26 01:41:30;;;;;;;12.65;10.25;;;12.90;91.50;;;;;;5045619;28;20056;-60
2022/03/26 01:43:58;;;;;;;18.40;10.27;;;12.90;91.30;;;;;;5046160;28;20116;-60
2022/03/26 01:46:47;;;;;;;15.73;10.10;;;12.90;91.20;;;;;;5052980;28;20387;-59
2022/03/26 01:49:15;;;;;;;18.95;11.32;;;12.90;91.20;;;;;;5036139;28;20499;-59
2022/03/26 01:51:43;;;;;;;14.77;9.55;;;12.90;91.20;;;;;;5037022;28;20055;-59
2022/03/26 01:54:11;;;;;;;14.68;10.95;;;12.90;91.60;;;;;;5054906;28;20048;-59
2022/03/26 01:56:39;;;;;;;15.90;10.52;;;12.90;91.70;;;;;;5054740;28;20037;-59
2022/03/26 01:59:08;;;;;;;16.27;10.85;;;12.90;91.80;;;;;;5054592;28;20051;-59
2022/03/26 02:01:37;;;;;;;19.63;11.13;;;12.80;91.30;;;;;;5036386;28;20116;-60
2022/03/26 02:04:05;;;;;;;13.63;11.52;;;12.80;91.10;;;;;;5019240;28;20045;-60
2022/03/26 02:06:34;;;;;;;16.63;11.05;;;12.80;90.80;;;;;;5062804;28;20525;-60
2022/03/26 02:09:13;;;;;;;16.00;11.95;;;12.70;90.70;;;;;;5053076;28;20495;-60
2022/03/26 02:11:44;;;;;;;12.90;9.82;;;12.70;90.70;;;;;;5052790;28;20390;-60
2022/03/26 02:14:13;;;;;;;16.38;10.55;;;12.70;90.50;;;;;;5052885;28;20560;-60
2022/03/26 02:16:43;;;;;;;16.73;11.13;;;12.70;90.00;;;;;;5035043;28;20045;-60
2022/03/26 02:19:11;;;;;;;18.65;11.13;;;12.70;89.10;;;;;;5035840;28;20048;-60
2022/03/26 02:21:39;;;;;;;14.23;10.90;;;12.60;87.50;;;;;;5054430;28;20095;-60
2022/03/26 02:24:08;;;;;;;16.88;10.15;;;12.60;86.70;;;;;;5036730;28;20052;-60
2022/03/26 02:26:37;;;;;;;18.83;11.07;;;12.60;86.00;;;;;;5036871;28;20410;-60
2022/03/26 02:29:09;;;;;;;14.18;9.60;;;12.60;85.40;;;;;;5054490;28;20079;-60
2022/03/26 02:31:38;;;;;;;16.15;10.85;;;12.60;85.60;;;;;;5054345;28;20427;-60
2022/03/26 02:34:07;;;;;;;15.95;10.77;;;12.60;85.20;;;;;;5036913;28;20048;-60
2022/03/26 02:36:34;;;;;;;15.57;10.60;;;12.60;84.90;;;;;;5054424;28;20499;-60
2022/03/26 02:39:03;;;;;;;18.45;10.40;;;12.70;83.50;;;;;;5036643;28;20048;-60
2022/03/26 02:41:33;;;;;;;17.65;11.52;;;12.70;83.00;;;;;;5036402;28;20041;-60
2022/03/26 02:44:01;;;;;;;14.73;10.93;;;12.70;82.70;;;;;;5036491;28;20139;-60
2022/03/26 02:46:29;;;;;;;16.60;11.50;;;12.70;82.30;;;;;;5053985;28;20047;-59
2022/03/26 02:48:56;;;;;;;14.90;11.20;;;12.70;82.20;;;;;;5036272;28;20047;-60
2022/03/26 02:51:24;;;;;;;15.20;9.57;;;12.70;81.70;;;;;;5036214;28;20044;-60
2022/03/26 02:53:51;;;;;;;15.70;10.38;;;12.70;81.60;;;;;;5036259;28;20045;-60
2022/03/26 02:56:19;;;;;;;13.63;10.27;;;12.70;81.00;;;;;;5054082;28;20120;-60
2022/03/26 02:58:48;;;;;;;12.10;8.38;;;12.60;80.70;;;;;;5036324;28;20052;-60
2022/03/26 03:01:16;;;;;;;17.48;8.77;;;12.60;80.00;;;;;;5053919;28;20033;-60
2022/03/26 03:03:44;;;;;;;15.43;9.30;;;12.60;79.80;;;;;;5053730;28;20041;-60
2022/03/26 03:06:11;;;;;;;14.23;9.20;;;12.60;79.50;;;;;;5035915;28;20045;-60
2022/03/26 03:08:39;;;;;;;11.23;8.23;;;12.70;79.00;;;;;;5019570;28;20055;-59
2022/03/26 03:11:08;;;;;;;14.60;8.45;;;12.70;79.00;;;;;;5035881;28;20048;-59
2022/03/26 03:13:36;;;;;;;12.38;8.80;;;12.60;79.10;;;;;;5052793;28;20056;-60
2022/03/26 03:16:03;;;;;;;12.60;9.18;;;12.60;79.20;;;;;;5019718;28;20037;-60
2022/03/26 03:18:31;;;;;;;16.48;10.02;;;12.60;77.20;;;;;;5036007;28;20372;-60
2022/03/26 03:21:01;;;;;;;13.93;9.38;;;12.60;75.60;;;;;;5035435;28;20053;-60
2022/03/26 03:23:28;;;;;;;14.90;9.35;;;12.60;76.70;;;;;;5053216;28;20041;-59
2022/03/26 03:25:56;;;;;;;11.75;8.80;;;12.60;77.10;;;;;;5019328;28;20487;-60
2022/03/26 03:28:24;;;;;;;11.88;9.55;;;12.60;76.80;;;;;;5053406;28;20413;-60
2022/03/26 03:30:52;;;;;;;14.40;9.50;;;12.60;75.90;;;;;;5053476;28;20044;-60
2022/03/26 03:33:20;;;;;;;12.27;9.80;;;12.60;76.20;;;;;;5035767;28;20664;-60
2022/03/26 03:35:48;;;;;;;12.45;9.23;;;12.60;76.60;;;;;;5035774;28;20045;-60
2022/03/26 03:38:16;;;;;;;12.23;8.98;;;12.60;76.60;;;;;;5035779;28;20083;-60
2022/03/26 03:40:43;;;;;;;12.30;8.80;;;12.60;76.80;;;;;;5036076;28;20041;-60
2022/03/26 03:43:11;;;;;;;16.30;9.80;;;12.60;76.80;;;;;;5035570;28;20057;-60
2022/03/26 03:45:39;;;;;;;14.77;8.82;;;12.60;76.00;;;;;;5035431;28;20044;-60
2022/03/26 03:48:06;;;;;;;13.55;9.05;;;12.60;76.30;;;;;;5053227;28;20052;-60
2022/03/26 03:50:34;;;;;;;10.02;8.50;;;12.50;76.20;;;;;;5053425;28;20471;-60
2022/03/26 03:53:02;;;;;;;16.48;9.15;;;12.50;76.10;;;;;;5053113;28;20052;-60
2022/03/26 03:55:29;;;;;;;21.60;10.18;;;12.60;76.00;;;;;;5053202;28;20069;-60
2022/03/26 03:57:57;;;;;;;14.52;8.70;;;12.60;75.70;;;;;;5053065;28;20041;-60
2022/03/26 04:00:25;;;;;;;12.40;8.93;;;12.60;75.10;;;;;;5035612;28;20380;-60
2022/03/26 04:02:54;;;;;;;18.60;9.30;;;12.60;74.30;;;;;;5018668;28;20041;-60
2022/03/26 04:05:22;;;;;;;15.00;8.55;;;12.60;74.40;;;;;;5018698;28;20041;-60
2022/03/26 04:07:50;;;;;;;12.02;8.68;;;12.60;75.40;;;;;;5035376;28;20045;-60
2022/03/26 04:10:17;;;;;;;11.95;8.68;;;12.60;77.00;;;;;;5053323;28;20052;-60
2022/03/26 04:12:45;;;;;;;13.45;9.18;;;12.50;77.70;;;;;;5053288;28;20041;-59
2022/03/26 04:15:14;;;;;;;15.27;9.07;;;12.50;77.60;;;;;;5052900;28;20037;-60
2022/03/26 04:17:42;;;;;;;11.82;8.48;;;12.40;77.20;;;;;;5053005;28;20394;-59
2022/03/26 04:20:10;;;;;;;11.20;8.45;;;12.30;77.60;;;;;;5052706;28;20048;-59
2022/03/26 04:22:38;;;;;;;12.27;8.15;;;12.30;78.30;;;;;;5053052;28;20049;-60
2022/03/26 04:25:07;;;;;;;13.48;8.77;;;12.20;78.20;;;;;;5020493;28;20407;-60
2022/03/26 04:27:36;;;;;;;13.52;9.73;;;12.20;77.80;;;;;;5056559;28;20048;-60
2022/03/26 04:30:04;;;;;;;20.38;11.55;;;12.10;77.50;;;;;;5038748;28;20045;-60
2022/03/26 04:32:31;;;;;;;20.25;15.20;;;12.10;77.40;;;;;;5038936;28;20057;-59
2022/03/26 04:34:59;;;;;;;21.30;13.20;;;12.00;77.30;;;;;;5038923;28;20041;-59
2022/03/26 04:37:28;;;;;;;21.40;12.90;;;12.00;77.50;;;;;;5056477;28;20137;-59
2022/03/26 04:39:55;;;;;;;18.35;12.18;;;12.00;77.40;;;;;;5038849;28;20119;-59
2022/03/26 04:42:23;;;;;;;15.27;11.65;;;11.90;77.50;;;;;;5056328;28;20068;-59
2022/03/26 04:44:50;;;;;;;18.10;10.43;;;11.90;77.60;;;;;;5038410;28;20398;-59
2022/03/26 04:47:18;;;;;;;17.05;10.57;;;11.90;77.70;;;;;;5038801;28;20467;-59
2022/03/26 04:49:46;;;;;;;14.23;10.35;;;11.90;77.90;;;;;;5056294;28;20045;-59
2022/03/26 04:52:14;;;;;;;17.83;11.45;;;11.90;78.10;;;;;;5056430;28;20368;-59
2022/03/26 04:54:43;;;;;;;19.38;12.38;;;12.00;78.50;;;;;;5021897;28;20053;-59
2022/03/26 04:57:10;;;;;;;20.65;12.95;;;12.00;78.60;;;;;;5038622;28;20040;-59
2022/03/26 04:59:38;;;;;;;17.92;12.27;;;12.10;78.70;;;;;;5021950;28;20033;-59
2022/03/26 05:02:05;;;;;;;17.80;12.27;;;12.10;78.90;;;;;;5038167;28;20529;-59
2022/03/26 05:04:33;;;;;;;17.45;11.63;;;12.20;79.10;;;;;;5036613;28;20080;-59
2022/03/26 05:07:00;;;;;;;20.02;12.95;;;12.30;79.10;;;;;;5043131;28;20171;-60
2022/03/26 05:09:28;;;;;;;17.95;11.95;;;12.40;79.40;;;;;;5024354;28;20088;-60
2022/03/26 05:11:56;;;;;;;17.33;12.52;;;12.50;80.30;;;;;;5049534;28;20475;-59
2022/03/26 05:14:24;;;;;;;19.58;13.27;;;12.50;80.30;;;;;;5035338;28;20588;-60
2022/03/26 05:16:52;;;;;;;20.48;12.52;;;12.60;80.10;;;;;;5029243;28;20049;-60
2022/03/26 05:19:19;;;;;;;18.13;12.88;;;12.70;80.10;;;;;;5035961;28;20064;-59
2022/03/26 05:21:47;;;;;;;16.58;12.57;;;12.80;80.50;;;;;;5023099;28;20060;-59
2022/03/26 05:24:16;;;;;;;20.65;12.35;;;12.80;79.70;;;;;;5036367;28;20047;-58
2022/03/26 05:26:44;;;;;;;21.65;11.63;;;12.90;78.90;;;;;;5055214;28;20048;-59
2022/03/26 05:29:11;;;;;;;16.00;11.73;;;13.00;78.90;;;;;;5055210;28;20052;-59
2022/03/26 05:31:39;;;;;;;18.92;11.98;;;13.10;79.00;;;;;;5034217;28;20501;-59
2022/03/26 05:34:06;;;;;;;19.65;11.00;;;13.20;79.00;;;;;;5055344;28;20559;-59
2022/03/26 05:36:34;;;;;;;16.77;12.25;;;13.40;78.90;;;;;;5053211;28;20047;-59
2022/03/26 05:39:02;;;;;;;15.73;10.57;;;13.50;79.00;;;;;;5055134;28;20052;-59
2022/03/26 05:41:29;;;;;;;17.42;12.10;;;13.60;78.80;;;;;;5055245;28;20037;-59
2022/03/26 05:43:57;;;;;;;15.38;11.38;;;13.70;78.40;;;;;;5055338;28;20517;-58
2022/03/26 05:46:25;;;;;;;18.27;13.00;;;13.80;78.30;;;;;;5053884;28;20471;-59
2022/03/26 05:48:53;;;;;;;16.58;12.73;;;14.00;78.70;;;;;;5055395;28;20052;-59
2022/03/26 05:51:20;;;;;;;18.60;12.70;;;14.20;79.20;;;;;;5055303;28;20487;-59
2022/03/26 05:53:49;;;;;;;18.85;10.93;;;14.40;80.80;;;;;;5053440;28;20065;-60
2022/03/26 05:56:17;;;;;;;19.90;12.82;;;14.60;82.40;;;;;;5052915;28;20041;-59
2022/03/26 05:58:44;;;;;;;18.23;12.35;;;14.80;83.80;;;;;;5035143;28;20098;-58
2022/03/26 06:01:12;;;;;;;20.35;13.38;;;14.90;84.60;;;;;;5053056;28;20048;-59
2022/03/26 06:03:39;;;;;;;20.27;12.18;;;15.10;85.70;;;;;;5035582;28;20123;-59
2022/03/26 06:06:08;;;;;;;21.35;13.82;;;15.20;86.40;;;;;;5036773;28;20391;-59
2022/03/26 06:08:41;;;;;;;19.13;14.60;;;15.40;86.70;;;;;;5054843;28;20033;-58
2022/03/26 06:11:24;;;;;;;20.42;14.98;;;15.50;87.80;;;;;;5038786;28;20048;-59
2022/03/26 06:13:58;;;;;;;23.42;15.25;;;15.70;89.20;;;;;;5054656;28;20048;-59
2022/03/26 06:16:34;;;;;;;23.13;15.23;;;15.90;90.30;;;;;;5054522;28;20391;-59
2022/03/26 06:19:03;;;;;;;19.92;13.50;;;16.10;90.50;;;;;;5035825;28;20080;-59
2022/03/26 06:21:30;;;;;;;18.90;14.98;;;16.20;90.60;;;;;;5036871;28;20059;-59
2022/03/26 06:23:58;;;;;;;24.13;16.10;;;16.40;90.90;;;;;;5054359;28;20131;-59
2022/03/26 06:26:26;;;;;;;21.40;14.93;;;16.60;91.60;;;;;;5054411;28;20065;-59
2022/03/26 06:28:54;;;;;;;19.75;14.40;;;16.70;92.00;;;;;;5054447;28;20084;-59
2022/03/26 06:31:22;;;;;;;21.77;16.73;;;16.80;92.40;;;;;;5054350;28;20497;-60
2022/03/26 06:33:50;;;;;;;21.52;16.42;;;17.00;93.10;;;;;;5054351;28;20041;-59
2022/03/26 06:36:18;;;;;;;23.23;16.27;;;17.10;93.60;;;;;;5054088;28;20569;-59
2022/03/26 06:38:46;;;;;;;25.05;15.60;;;17.20;94.20;;;;;;5054202;28;20361;-59
2022/03/26 06:41:15;;;;;;;22.98;15.48;;;17.10;94.50;;;;;;5036493;28;20450;-59
2022/03/26 06:43:44;;;;;;;20.80;14.25;;;17.10;94.90;;;;;;5054382;28;20513;-59
2022/03/26 06:46:12;;;;;;;26.30;15.43;;;17.20;95.20;;;;;;5054099;28;20541;-60
2022/03/26 06:48:40;;;;;;;18.48;13.98;;;17.10;95.40;;;;;;5036220;28;20406;-59
2022/03/26 06:51:10;;;;;;;18.73;12.82;;;17.00;95.50;;;;;;5054336;28;20049;-59
2022/03/26 06:53:37;;;;;;;20.27;14.77;;;17.00;95.90;;;;;;5036218;28;20041;-59
2022/03/26 06:56:06;;;;;;;18.50;13.70;;;17.00;96.30;;;;;;5053936;28;20052;-59
2022/03/26 06:58:35;;;;;;;19.48;13.50;;;17.10;96.40;;;;;;5036360;28;20045;-59
2022/03/26 07:01:03;;;;;;;18.05;12.57;;;17.10;96.30;;;;;;5035842;28;20394;-59
2022/03/26 07:03:31;;;;;;;18.55;13.02;;;17.30;96.10;;;;;;5053383;28;20118;-58
2022/03/26 07:05:59;;;;;;;20.33;12.20;;;17.20;95.80;;;;;;5053612;28;20047;-59
2022/03/26 07:08:30;;;;;;;16.77;13.07;;;17.30;95.50;;;;;;5053603;28;20079;-59
2022/03/26 07:10:59;;;;;;;19.45;13.65;;;17.40;95.40;;;;;;5036035;28;20044;-58
2022/03/26 07:13:26;;;;;;;16.60;12.45;;;17.30;95.50;;;;;;5053397;28;20055;-58
2022/03/26 07:15:54;;;;;;;21.52;13.52;;;17.50;95.50;;;;;;5019501;28;20125;-58
2022/03/26 07:18:22;;;;;;;16.27;13.15;;;17.70;95.10;;;;;;5053428;28;20411;-58
2022/03/26 07:20:51;;;;;;;14.25;11.57;;;17.60;95.30;;;;;;5053348;28;20056;-58
2022/03/26 07:23:19;;;;;;;13.60;10.70;;;17.70;95.20;;;;;;5053359;28;20056;-58
2022/03/26 07:25:46;;;;;;;14.40;12.10;;;18.00;95.20;;;;;;5053352;28;20415;-58
2022/03/26 07:28:15;;;;;;;16.52;11.82;;;18.10;94.60;;;;;;5053523;28;20497;-58
2022/03/26 07:30:42;;;;;;;12.80;10.18;;;18.20;94.30;;;;;;5053271;28;20049;-58
2022/03/26 07:33:10;;;;;;;12.88;8.82;;;18.50;94.30;;;;;;5053375;28;20041;-58
2022/03/26 07:35:38;;;;;;;13.68;9.65;;;18.60;93.10;;;;;;5053441;28;20047;-58
2022/03/26 07:38:05;;;;;;;14.63;10.02;;;18.70;92.50;;;;;;5035776;28;20123;-58
2022/03/26 07:40:33;;;;;;;13.20;9.95;;;18.80;92.50;;;;;;5053485;28;20060;-58
2022/03/26 07:43:02;;;;;;;14.52;10.07;;;18.90;93.10;;;;;;5053236;28;20083;-58
2022/03/26 07:45:30;;;;;;;12.85;9.25;;;18.70;92.80;;;;;;5053161;28;20048;-58
2022/03/26 07:47:59;;;;;;;11.75;8.27;;;18.80;92.80;;;;;;5053225;28;20041;-58
2022/03/26 07:50:28;;;;;;;15.20;8.68;;;18.90;92.30;;;;;;5053220;28;20049;-58
2022/03/26 07:52:56;;;;;;;13.27;8.45;;;18.70;92.20;;;;;;5053304;28;20041;-57
2022/03/26 07:55:24;;;;;;;10.82;7.70;;;18.80;92.40;;;;;;5035480;28;20049;-58
2022/03/26 07:57:52;;;;;;;12.57;8.77;;;18.70;92.10;;;;;;5053290;28;20048;-58
2022/03/26 08:00:21;;;;;;;12.15;8.45;;;18.80;91.80;;;;;;5055578;28;20068;-58
2022/03/26 08:02:48;;;;;;;13.30;8.35;;;19.00;91.20;;;;;;5057130;28;20110;-58
2022/03/26 08:05:16;;;;;;;12.45;8.57;;;19.00;90.70;;;;;;5057047;28;20049;-58
2022/03/26 08:07:44;;;;;;;13.27;7.55;;;18.90;90.00;;;;;;5057166;28;20132;-58
2022/03/26 08:10:12;;;;;;;13.23;9.13;;;19.00;89.90;;;;;;5057052;28;20140;-58
2022/03/26 08:12:39;;;;;;;9.88;7.28;;;18.80;89.80;;;;;;5056864;28;20499;-58
2022/03/26 08:15:07;;;;;;;11.80;8.75;;;18.70;90.10;;;;;;5022737;28;20045;-58
2022/03/26 08:17:35;;;;;;;11.52;8.55;;;18.90;90.20;;;;;;5056974;28;20041;-58
2022/03/26 08:20:07;;;;;;;13.50;10.00;;;18.70;90.50;;;;;;5056859;28;20087;-59
2022/03/26 08:22:35;;;;;;;11.18;8.43;;;18.60;91.00;;;;;;5056838;28;20045;-58
2022/03/26 08:25:03;;;;;;;13.52;9.02;;;18.30;90.90;;;;;;5056711;28;20045;-58
2022/03/26 08:27:31;;;;;;;12.68;8.55;;;18.30;91.50;;;;;;5056642;28;20064;-58
2022/03/26 08:29:58;;;;;;;14.70;8.85;;;18.30;91.80;;;;;;5039087;28;20059;-58
2022/03/26 08:32:26;;;;;;;12.20;8.30;;;18.50;91.40;;;;;;5056402;28;20045;-58
2022/03/26 08:34:53;;;;;;;9.70;7.50;;;18.80;91.40;;;;;;5056801;28;20399;-58
2022/03/26 08:37:21;;;;;;;15.38;8.35;;;18.90;90.60;;;;;;5056679;28;20127;-58
2022/03/26 08:39:49;;;;;;;11.55;7.47;;;19.10;89.70;;;;;;5056328;28;20065;-58
2022/03/26 08:42:16;;;;;;;10.50;7.80;;;19.40;88.10;;;;;;5056366;28;20049;-58
2022/03/26 08:44:44;;;;;;;10.48;7.40;;;19.60;88.10;;;;;;5056528;28;20087;-58
2022/03/26 08:47:11;;;;;;;10.20;7.20;;;19.80;87.90;;;;;;5056563;28;20487;-59
2022/03/26 08:49:40;;;;;;;9.98;7.22;;;19.90;87.60;;;;;;5038496;28;20040;-58
2022/03/26 08:52:08;;;;;;;12.27;7.90;;;19.80;87.10;;;;;;5038222;28;20503;-58
2022/03/26 08:54:35;;;;;;;12.38;8.50;;;19.70;86.40;;;;;;5055996;28;20059;-58
2022/03/26 08:57:04;;;;;;;10.07;7.57;;;19.70;85.30;;;;;;5038272;28;20139;-57
2022/03/26 08:59:31;;;;;;;8.77;7.10;;;19.80;84.90;;;;;;5056110;28;20044;-58
2022/03/26 09:01:59;;;;;;;8.73;7.03;;;20.00;84.40;;;;;;5056127;28;20110;-57
2022/03/26 09:04:26;;;;;;;9.05;6.80;;;20.20;84.10;;;;;;5055827;28;20063;-57
2022/03/26 09:06:54;;;;;;;9.60;7.97;;;20.40;84.10;;;;;;5056028;28;20037;-58
2022/03/26 09:09:21;;;;;;;11.45;7.75;;;20.50;84.00;;;;;;5055971;28;20049;-57
2022/03/26 09:11:49;;;;;;;12.93;8.30;;;20.50;85.40;;;;;;5048404;28;20043;-58
2022/03/26 09:14:17;;;;;;;11.18;8.15;;;20.30;85.70;;;;;;5042802;28;20044;-58
2022/03/26 09:16:44;;;;;;;12.43;8.27;;;20.10;85.80;;;;;;5051630;28;20395;-58
2022/03/26 09:19:12;;;;;;;12.38;8.25;;;20.00;85.60;;;;;;5018669;28;20040;-58
2022/03/26 09:21:40;;;;;;;11.25;7.50;;;19.90;85.00;;;;;;5027828;28;20045;-58
2022/03/26 09:24:07;;;;;;;10.93;7.13;;;20.00;83.90;;;;;;5026665;28;20042;-58
2022/03/26 09:26:35;;;;;;;10.68;7.70;;;19.90;84.20;;;;;;5034591;28;20048;-57
2022/03/26 09:29:02;;;;;;;12.63;8.60;;;20.10;84.60;;;;;;5035676;28;20091;-57
2022/03/26 09:31:30;;;;;;;12.45;8.05;;;20.00;84.50;;;;;;5035579;28;20048;-57
2022/03/26 09:33:58;;;;;;;13.15;8.02;;;20.20;83.60;;;;;;5036316;28;20079;-57
2022/03/26 09:36:25;;;;;;;11.15;7.28;;;20.40;82.40;;;;;;5054871;28;20048;-57
2022/03/26 09:38:52;;;;;;;8.38;6.72;;;20.50;81.70;;;;;;5055268;28;20045;-57
2022/03/26 09:41:22;;;;;;;8.90;7.13;;;20.70;81.50;;;;;;5036635;28;20046;-58
2022/03/26 09:43:52;;;;;;;10.60;6.88;;;20.70;81.50;;;;;;5047760;28;20503;-58
2022/03/26 09:46:20;;;;;;;10.73;7.45;;;20.40;80.30;;;;;;5054149;28;20390;-57
2022/03/26 09:48:48;;;;;;;9.57;6.80;;;20.40;81.80;;;;;;5053456;28;20399;-58
2022/03/26 09:51:20;;;;;;;12.35;7.55;;;20.40;82.30;;;;;;5056763;28;20040;-58
2022/03/26 09:53:54;;;;;;;9.48;7.05;;;20.30;82.80;;;;;;5058987;28;20044;-58
2022/03/26 09:56:23;;;;;;;9.48;6.75;;;20.50;82.80;;;;;;5043539;28;20071;-58
2022/03/26 09:58:52;;;;;;;9.13;7.18;;;20.50;81.50;;;;;;5025546;28;20041;-58
2022/03/26 10:01:20;;;;;;;13.13;7.97;;;20.50;80.80;;;;;;5053858;28;20087;-58
2022/03/26 10:04:06;;;;;;;9.48;6.97;;;20.30;79.40;;;;;;5048020;28;20051;-58
2022/03/26 10:06:35;;;;;;;11.45;7.65;;;20.50;80.10;;;;;;5043794;28;20050;-58
2022/03/26 10:09:03;;;;;;;11.05;7.43;;;20.60;79.80;;;;;;5047488;28;20102;-58
2022/03/26 10:11:32;;;;;;;10.02;6.78;;;20.70;79.60;;;;;;5053956;28;20657;-58
2022/03/26 10:14:00;;;;;;;12.80;7.93;;;20.70;79.20;;;;;;5055821;28;20415;-58
2022/03/26 10:16:28;;;;;;;10.85;7.28;;;20.80;78.90;;;;;;5040142;28;20492;-58
2022/03/26 10:18:59;;;;;;;12.13;8.82;;;20.70;79.80;;;;;;5074597;28;20072;-58
2022/03/26 10:21:27;;;;;;;8.93;6.72;;;20.80;80.50;;;;;;5074297;28;20086;-57
2022/03/26 10:23:55;;;;;;;9.70;6.63;;;20.80;80.50;;;;;;5066664;28;20045;-58
2022/03/26 10:26:25;;;;;;;8.93;6.90;;;20.60;80.00;;;;;;5054042;28;20037;-58
2022/03/26 10:28:58;;;;;;;9.18;6.50;;;20.50;80.50;;;;;;5020382;28;20056;-58
2022/03/26 10:34:20;;;;;;;9.15;6.70;;;20.60;80.50;;;;;;5054607;28;20120;-57
2022/03/26 10:36:58;;;;;;;11.00;7.45;;;20.50;79.20;;;;;;5043414;28;20052;-58
2022/03/26 10:39:29;;;;;;;10.50;7.53;;;20.50;78.90;;;;;;5040557;28;20048;-58
2022/03/26 10:41:57;;;;;;;10.57;7.35;;;20.70;78.80;;;;;;5054096;28;20041;-57
2022/03/26 10:44:32;;;;;;;11.63;7.88;;;20.80;79.10;;;;;;5053832;28;20044;-58
2022/03/26 10:47:03;;;;;;;12.23;7.93;;;20.90;78.20;;;;;;5036539;28;20045;-58
2022/03/26 10:49:33;;;;;;;9.00;6.68;;;20.80;78.40;;;;;;5054148;28;20127;-58
2022/03/26 10:52:18;;;;;;;11.38;6.88;;;20.80;78.30;;;;;;5052745;28;20098;-58
2022/03/26 10:54:47;;;;;;;11.45;7.15;;;20.80;78.50;;;;;;5039250;28;20053;-58
2022/03/26 10:57:20;;;;;;;12.30;8.07;;;20.80;78.10;;;;;;5027063;28;20064;-58
2022/03/26 10:59:49;;;;;;;15.82;7.13;;;20.70;76.20;;;;;;5029014;28;20033;-58
2022/03/26 11:02:17;;;;;;;10.25;7.25;;;20.70;76.40;;;;;;5053681;28;20453;-58
2022/03/26 11:04:44;;;;;;;10.82;7.47;;;20.70;76.80;;;;;;5035951;28;20049;-58
2022/03/26 11:07:12;;;;;;;11.63;7.97;;;20.80;75.30;;;;;;5020975;28;20074;-58
2022/03/26 11:09:41;;;;;;;10.32;7.03;;;20.70;73.80;;;;;;5042665;28;20395;-58
2022/03/26 11:12:10;;;;;;;10.40;7.55;;;20.50;73.50;;;;;;5035848;28;20044;-58
2022/03/26 11:14:41;;;;;;;8.52;6.75;;;20.60;73.60;;;;;;5034896;28;20041;-58
2022/03/26 11:17:28;;;;;;;9.80;7.18;;;20.80;73.70;;;;;;5048662;28;20037;-58
2022/03/26 11:20:32;;;;;;;11.90;6.68;;;21.10;73.30;;;;;;5040543;28;20060;-58
2022/03/26 11:23:18;;;;;;;8.88;6.30;;;21.10;72.10;;;;;;5043536;28;20090;-58
2022/03/26 11:26:04;;;;;;;9.43;6.50;;;20.60;72.30;;;;;;5021941;28;20127;-58
2022/03/26 11:29:11;;;;;;;10.90;7.38;;;20.70;72.80;;;;;;5050066;28;20441;-58
2022/03/26 11:31:46;;;;;;;12.30;7.30;;;20.80;73.10;;;;;;5033369;28;20045;-57
2022/03/26 11:34:17;;;;;;;10.63;6.93;;;20.90;73.50;;;;;;5032948;28;20091;-62
2022/03/26 11:36:45;;;;;;;9.95;6.90;;;21.00;73.50;;;;;;5043124;28;20083;-59
2022/03/26 11:39:18;;;;;;;12.43;7.43;;;21.20;74.50;;;;;;5053409;28;20102;-58
2022/03/26 11:41:46;;;;;;;15.15;7.15;;;21.40;74.20;;;;;;5051518;28;20492;-58
2022/03/26 11:44:17;;;;;;;12.05;7.35;;;21.60;74.10;;;;;;5033613;28;20049;-58
2022/03/26 11:52:26;;;;;;;12.50;7.60;;;21.00;73.10;;;;;;5053277;28;20047;-58
2022/03/26 11:55:10;;;;;;;9.18;6.75;;;21.10;73.30;;;;;;5053416;28;20494;-58
2022/03/26 11:57:38;;;;;;;12.57;8.02;;;21.00;73.50;;;;;;5053489;28;20033;-58
2022/03/26 12:00:20;;;;;;;12.68;7.65;;;21.10;73.10;;;;;;5051904;28;20045;-58
2022/03/26 12:03:01;;;;;;;9.88;6.85;;;21.20;72.30;;;;;;5052936;28;20037;-59
2022/03/26 12:08:38;;;;;;;10.30;6.53;;;21.30;72.20;;;;;;5052144;28;20045;-59
2022/03/26 12:11:06;;;;;;;8.63;6.13;;;21.30;72.10;;;;;;5051938;28;20403;-59
2022/03/26 12:13:34;;;;;;;11.23;7.63;;;21.30;72.60;;;;;;5037760;28;20073;-59
2022/03/26 12:16:07;;;;;;;10.05;7.22;;;21.30;73.80;;;;;;5053387;28;20479;-59
2022/03/26 12:18:36;;;;;;;9.68;7.47;;;21.20;72.80;;;;;;5053161;28;20483;-59
2022/03/26 12:21:08;;;;;;;12.18;6.53;;;21.30;73.00;;;;;;5035817;28;20132;-58
2022/03/26 12:23:36;;;;;;;11.30;7.65;;;21.30;72.70;;;;;;5040482;28;20403;-58
2022/03/26 12:26:07;;;;;;;10.85;6.82;;;21.20;73.10;;;;;;5052757;28;20051;-59
2022/03/26 12:28:37;;;;;;;13.60;7.60;;;21.00;72.10;;;;;;5041475;28;20144;-59
2022/03/26 12:31:13;;;;;;;10.32;6.25;;;20.90;72.20;;;;;;5052299;28;20131;-58
2022/03/26 12:33:45;;;;;;;9.18;6.72;;;20.70;71.80;;;;;;5026389;28;20041;-58
2022/03/26 12:36:18;;;;;;;12.73;7.18;;;20.80;72.00;;;;;;5032999;28;20049;-58
2022/03/26 12:38:50;;;;;;;9.35;6.50;;;20.80;71.00;;;;;;5060804;28;20076;-58
2022/03/26 12:41:19;;;;;;;10.38;7.05;;;20.70;70.80;;;;;;5053229;28;20048;-58
2022/03/26 12:44:00;;;;;;;13.40;7.25;;;20.70;70.50;;;;;;5051537;28;20049;-59
2022/03/26 12:46:36;;;;;;;10.32;6.88;;;20.70;70.00;;;;;;5037605;28;20049;-59
2022/03/26 12:49:20;;;;;;;12.30;6.15;;;20.50;70.10;;;;;;5055185;28;20120;-59
2022/03/26 12:51:49;;;;;;;13.95;7.35;;;20.60;71.60;;;;;;5055142;28;20045;-58
2022/03/26 12:54:17;;;;;;;13.77;8.70;;;20.50;74.60;;;;;;5055551;28;20045;-58